sensor_id;sensor_type;location;lat;lon;timestamp;pressure;altitude;pressure_sealevel;temperature;humidity
34103;BME280;20381;54.498;18.206;2023-08-21T00:00:57;100139.84;;;19.16;83.64
34103;BME280;20381;54.498;18.206;2023-08-21T00:03:39;100139.59;;;19.15;83.66
34103;BME280;20381;54.498;18.206;2023-08-21T00:06:07;100139.39;;;19.06;83.34
34103;BME280;20381;54.498;18.206;2023-08-21T00:08:36;100139.43;;;18.95;83.62
34103;BME280;20381;54.498;18.206;2023-08-21T00:11:04;100139.82;;;18.88;83.63
34103;BME280;20381;54.498;18.206;2023-08-21T00:13:33;100138.77;;;18.79;83.63
34103;BME280;20381;54.498;18.206;2023-08-21T00:16:01;100136.23;;;18.65;83.83
34103;BME280;20381;54.498;18.206;2023-08-21T00:18:30;100136.10;;;18.60;84.05
34103;BME280;20381;54.498;18.206;2023-08-21T00:21:05;100135.45;;;18.54;84.02
34103;BME280;20381;54.498;18.206;2023-08-21T00:23:34;100133.99;;;18.47;84.03
34103;BME280;20381;54.498;18.206;2023-08-21T00:26:15;100132.23;;;18.36;83.96
34103;BME280;20381;54.498;18.206;2023-08-21T00:28:44;100126.34;;;18.20;84.24
34103;BME280;20381;54.498;18.206;2023-08-21T00:31:12;100124.80;;;18.09;84.47
34103;BME280;20381;54.498;18.206;2023-08-21T00:33:41;100125.64;;;18.05;84.89
34103;BME280;20381;54.498;18.206;2023-08-21T00:36:09;100122.41;;;18.08;84.78
34103;BME280;20381;54.498;18.206;2023-08-21T00:38:38;100123.34;;;18.05;84.63
34103;BME280;20381;54.498;18.206;2023-08-21T00:41:08;100124.30;;;17.99;84.59
34103;BME280;20381;54.498;18.206;2023-08-21T00:43:37;100124.68;;;17.94;84.68
34103;BME280;20381;54.498;18.206;2023-08-21T00:46:06;100123.20;;;17.87;84.72
34103;BME280;20381;54.498;18.206;2023-08-21T00:48:36;100125.48;;;17.80;84.72
34103;BME280;20381;54.498;18.206;2023-08-21T00:51:05;100125.52;;;17.72;84.67
34103;BME280;20381;54.498;18.206;2023-08-21T00:53:35;100127.02;;;17.67;84.80
34103;BME280;20381;54.498;18.206;2023-08-21T00:56:04;100125.27;;;17.62;84.84
34103;BME280;20381;54.498;18.206;2023-08-21T00:58:32;100126.27;;;17.56;84.83
34103;BME280;20381;54.498;18.206;2023-08-21T01:01:01;100122.50;;;17.49;84.89
34103;BME280;20381;54.498;18.206;2023-08-21T01:03:32;100118.82;;;17.47;85.16
34103;BME280;20381;54.498;18.206;2023-08-21T01:06:00;100120.78;;;17.46;85.25
34103;BME280;20381;54.498;18.206;2023-08-21T01:14:08;100128.68;;;17.59;85.28
34103;BME280;20381;54.498;18.206;2023-08-21T01:16:40;100131.06;;;17.63;85.54
34103;BME280;20381;54.498;18.206;2023-08-21T01:19:26;100132.66;;;17.70;85.54
34103;BME280;20381;54.498;18.206;2023-08-21T01:21:59;100134.96;;;17.75;85.34
34103;BME280;20381;54.498;18.206;2023-08-21T01:24:28;100135.21;;;17.77;85.46
34103;BME280;20381;54.498;18.206;2023-08-21T01:26:57;100133.91;;;17.78;85.50
34103;BME280;20381;54.498;18.206;2023-08-21T01:29:26;100134.81;;;17.80;85.49
34103;BME280;20381;54.498;18.206;2023-08-21T01:34:33;100137.86;;;17.80;85.27
34103;BME280;20381;54.498;18.206;2023-08-21T01:37:03;100136.90;;;17.81;85.51
34103;BME280;20381;54.498;18.206;2023-08-21T01:39:33;100136.21;;;17.80;85.45
34103;BME280;20381;54.498;18.206;2023-08-21T01:42:02;100138.20;;;17.74;85.19
34103;BME280;20381;54.498;18.206;2023-08-21T01:44:33;100140.86;;;17.74;85.48
34103;BME280;20381;54.498;18.206;2023-08-21T01:47:02;100134.89;;;17.74;85.36
34103;BME280;20381;54.498;18.206;2023-08-21T01:49:31;100129.68;;;17.75;85.29
34103;BME280;20381;54.498;18.206;2023-08-21T01:52:00;100127.86;;;17.76;85.10
34103;BME280;20381;54.498;18.206;2023-08-21T01:54:29;100123.14;;;17.67;85.22
34103;BME280;20381;54.498;18.206;2023-08-21T01:56:58;100118.96;;;17.72;85.33
34103;BME280;20381;54.498;18.206;2023-08-21T01:59:27;100127.83;;;17.72;85.31
34103;BME280;20381;54.498;18.206;2023-08-21T02:01:55;100126.96;;;17.74;85.39
34103;BME280;20381;54.498;18.206;2023-08-21T02:04:24;100128.12;;;17.78;85.28
34103;BME280;20381;54.498;18.206;2023-08-21T02:06:53;100127.61;;;17.80;85.08
34103;BME280;20381;54.498;18.206;2023-08-21T02:09:21;100126.70;;;17.80;84.97
34103;BME280;20381;54.498;18.206;2023-08-21T02:11:50;100128.02;;;17.76;84.81
34103;BME280;20381;54.498;18.206;2023-08-21T02:14:18;100124.73;;;17.73;84.61
34103;BME280;20381;54.498;18.206;2023-08-21T02:16:47;100124.03;;;17.68;84.32
34103;BME280;20381;54.498;18.206;2023-08-21T02:19:16;100127.11;;;17.61;84.49
34103;BME280;20381;54.498;18.206;2023-08-21T02:21:44;100134.91;;;17.63;84.65
34103;BME280;20381;54.498;18.206;2023-08-21T02:24:13;100136.46;;;17.63;84.41
34103;BME280;20381;54.498;18.206;2023-08-21T02:26:42;100132.77;;;17.63;84.37
34103;BME280;20381;54.498;18.206;2023-08-21T02:29:11;100132.16;;;17.62;84.17
34103;BME280;20381;54.498;18.206;2023-08-21T02:31:39;100132.62;;;17.58;84.10
34103;BME280;20381;54.498;18.206;2023-08-21T02:34:08;100131.80;;;17.52;84.09
34103;BME280;20381;54.498;18.206;2023-08-21T02:36:36;100130.58;;;17.45;84.18
34103;BME280;20381;54.498;18.206;2023-08-21T02:39:05;100129.95;;;17.43;84.40
34103;BME280;20381;54.498;18.206;2023-08-21T02:41:35;100131.02;;;17.46;84.50
34103;BME280;20381;54.498;18.206;2023-08-21T02:44:04;100131.76;;;17.43;84.03
34103;BME280;20381;54.498;18.206;2023-08-21T02:46:38;100131.31;;;17.32;84.00
34103;BME280;20381;54.498;18.206;2023-08-21T02:49:07;100127.92;;;17.24;84.01
34103;BME280;20381;54.498;18.206;2023-08-21T02:51:36;100125.52;;;17.26;84.09
34103;BME280;20381;54.498;18.206;2023-08-21T02:54:06;100121.71;;;17.26;84.07
34103;BME280;20381;54.498;18.206;2023-08-21T02:56:35;100120.29;;;17.23;83.96
34103;BME280;20381;54.498;18.206;2023-08-21T02:59:09;100123.79;;;17.17;83.74
34103;BME280;20381;54.498;18.206;2023-08-21T03:01:38;100125.98;;;17.09;83.89
34103;BME280;20381;54.498;18.206;2023-08-21T03:06:46;100119.98;;;17.06;83.97
34103;BME280;20381;54.498;18.206;2023-08-21T03:09:15;100119.67;;;17.04;83.99
34103;BME280;20381;54.498;18.206;2023-08-21T03:11:44;100114.39;;;17.03;84.16
34103;BME280;20381;54.498;18.206;2023-08-21T03:14:13;100117.41;;;17.06;84.07
34103;BME280;20381;54.498;18.206;2023-08-21T03:16:42;100118.55;;;17.07;84.00
34103;BME280;20381;54.498;18.206;2023-08-21T03:19:11;100112.45;;;17.06;83.91
34103;BME280;20381;54.498;18.206;2023-08-21T03:21:40;100105.84;;;17.05;84.01
34103;BME280;20381;54.498;18.206;2023-08-21T03:24:09;100108.80;;;17.03;84.07
34103;BME280;20381;54.498;18.206;2023-08-21T03:26:38;100103.98;;;16.99;84.00
34103;BME280;20381;54.498;18.206;2023-08-21T03:29:07;100102.89;;;16.91;83.91
34103;BME280;20381;54.498;18.206;2023-08-21T03:31:36;100104.53;;;16.83;84.11
34103;BME280;20381;54.498;18.206;2023-08-21T03:34:05;100101.13;;;16.75;84.09
34103;BME280;20381;54.498;18.206;2023-08-21T03:36:34;100099.00;;;16.62;84.39
34103;BME280;20381;54.498;18.206;2023-08-21T03:39:04;100101.29;;;16.54;84.62
34103;BME280;20381;54.498;18.206;2023-08-21T03:41:37;100096.05;;;16.49;84.77
34103;BME280;20381;54.498;18.206;2023-08-21T03:44:07;100095.25;;;16.42;84.85
34103;BME280;20381;54.498;18.206;2023-08-21T03:46:37;100096.36;;;16.36;84.81
34103;BME280;20381;54.498;18.206;2023-08-21T03:49:06;100100.05;;;16.30;84.62
34103;BME280;20381;54.498;18.206;2023-08-21T03:51:35;100098.00;;;16.24;85.03
34103;BME280;20381;54.498;18.206;2023-08-21T03:54:03;100100.39;;;16.22;85.57
34103;BME280;20381;54.498;18.206;2023-08-21T03:56:32;100098.86;;;16.21;86.02
34103;BME280;20381;54.498;18.206;2023-08-21T03:59:08;100100.96;;;16.24;86.47
34103;BME280;20381;54.498;18.206;2023-08-21T04:01:38;100094.19;;;16.31;86.44
34103;BME280;20381;54.498;18.206;2023-08-21T04:04:06;100094.66;;;16.29;86.08
34103;BME280;20381;54.498;18.206;2023-08-21T04:06:35;100097.38;;;16.23;86.18
34103;BME280;20381;54.498;18.206;2023-08-21T04:09:04;100095.60;;;16.15;86.17
34103;BME280;20381;54.498;18.206;2023-08-21T04:11:35;100096.58;;;16.11;86.31
34103;BME280;20381;54.498;18.206;2023-08-21T04:14:04;100098.73;;;16.18;86.42
34103;BME280;20381;54.498;18.206;2023-08-21T04:16:33;100098.95;;;16.28;86.96
34103;BME280;20381;54.498;18.206;2023-08-21T04:19:02;100098.33;;;16.41;87.15
34103;BME280;20381;54.498;18.206;2023-08-21T04:21:30;100097.97;;;16.57;87.19
34103;BME280;20381;54.498;18.206;2023-08-21T04:23:59;100098.63;;;16.63;86.93
34103;BME280;20381;54.498;18.206;2023-08-21T04:26:28;100096.21;;;16.62;87.11
34103;BME280;20381;54.498;18.206;2023-08-21T04:28:57;100088.17;;;16.75;87.68
34103;BME280;20381;54.498;18.206;2023-08-21T04:31:26;100085.78;;;16.90;87.80
34103;BME280;20381;54.498;18.206;2023-08-21T04:33:55;100083.46;;;17.01;87.80
34103;BME280;20381;54.498;18.206;2023-08-21T04:36:23;100084.32;;;17.08;87.80
34103;BME280;20381;54.498;18.206;2023-08-21T04:38:52;100089.38;;;17.14;87.90
34103;BME280;20381;54.498;18.206;2023-08-21T04:41:20;100089.00;;;17.25;88.10
34103;BME280;20381;54.498;18.206;2023-08-21T04:43:49;100083.45;;;17.39;88.36
34103;BME280;20381;54.498;18.206;2023-08-21T04:46:18;100081.64;;;17.55;88.40
34103;BME280;20381;54.498;18.206;2023-08-21T04:48:48;100079.72;;;17.67;88.50
34103;BME280;20381;54.498;18.206;2023-08-21T04:51:17;100084.73;;;17.79;88.53
34103;BME280;20381;54.498;18.206;2023-08-21T04:53:46;100079.66;;;17.85;88.44
34103;BME280;20381;54.498;18.206;2023-08-21T04:56:14;100079.59;;;17.94;88.61
34103;BME280;20381;54.498;18.206;2023-08-21T04:58:43;100081.36;;;18.06;88.61
34103;BME280;20381;54.498;18.206;2023-08-21T05:01:12;100080.95;;;18.17;88.61
34103;BME280;20381;54.498;18.206;2023-08-21T05:03:41;100085.11;;;18.22;88.38
34103;BME280;20381;54.498;18.206;2023-08-21T05:06:10;100084.84;;;18.28;88.62
34103;BME280;20381;54.498;18.206;2023-08-21T05:08:40;100090.10;;;18.29;88.57
34103;BME280;20381;54.498;18.206;2023-08-21T05:11:08;100088.98;;;18.41;88.15
34103;BME280;20381;54.498;18.206;2023-08-21T05:13:37;100097.96;;;18.43;87.74
34103;BME280;20381;54.498;18.206;2023-08-21T05:16:09;100092.06;;;18.42;87.77
34103;BME280;20381;54.498;18.206;2023-08-21T05:18:39;100100.36;;;18.42;87.81
34103;BME280;20381;54.498;18.206;2023-08-21T05:21:10;100107.98;;;18.42;87.69
34103;BME280;20381;54.498;18.206;2023-08-21T05:23:39;100110.92;;;18.42;87.82
34103;BME280;20381;54.498;18.206;2023-08-21T05:26:08;100117.98;;;18.45;87.72
34103;BME280;20381;54.498;18.206;2023-08-21T05:28:37;100117.04;;;18.48;87.69
34103;BME280;20381;54.498;18.206;2023-08-21T05:31:06;100116.95;;;18.51;87.63
34103;BME280;20381;54.498;18.206;2023-08-21T05:33:35;100116.50;;;18.58;87.41
34103;BME280;20381;54.498;18.206;2023-08-21T05:36:05;100119.05;;;18.52;87.46
34103;BME280;20381;54.498;18.206;2023-08-21T05:38:33;100118.88;;;18.59;88.12
34103;BME280;20381;54.498;18.206;2023-08-21T05:41:02;100122.59;;;18.66;88.27
34103;BME280;20381;54.498;18.206;2023-08-21T05:43:31;100119.79;;;18.82;88.33
34103;BME280;20381;54.498;18.206;2023-08-21T05:46:00;100120.91;;;18.96;88.43
34103;BME280;20381;54.498;18.206;2023-08-21T05:48:29;100118.22;;;19.19;88.55
34103;BME280;20381;54.498;18.206;2023-08-21T05:50:58;100116.79;;;19.38;88.61
34103;BME280;20381;54.498;18.206;2023-08-21T05:53:28;100120.41;;;19.62;88.52
34103;BME280;20381;54.498;18.206;2023-08-21T05:55:58;100121.44;;;19.80;88.12
34103;BME280;20381;54.498;18.206;2023-08-21T05:58:27;100119.44;;;19.95;88.15
34103;BME280;20381;54.498;18.206;2023-08-21T06:00:59;100121.23;;;20.16;88.35
34103;BME280;20381;54.498;18.206;2023-08-21T06:03:28;100123.29;;;20.36;88.07
34103;BME280;20381;54.498;18.206;2023-08-21T06:05:57;100131.32;;;20.48;87.45
34103;BME280;20381;54.498;18.206;2023-08-21T06:08:26;100127.40;;;20.53;87.27
34103;BME280;20381;54.498;18.206;2023-08-21T06:10:54;100123.36;;;20.66;86.98
34103;BME280;20381;54.498;18.206;2023-08-21T06:13:50;100124.27;;;20.72;86.38
34103;BME280;20381;54.498;18.206;2023-08-21T06:16:59;100127.05;;;20.81;86.20
34103;BME280;20381;54.498;18.206;2023-08-21T06:19:29;100126.06;;;20.76;85.58
34103;BME280;20381;54.498;18.206;2023-08-21T06:21:58;100125.29;;;20.85;86.23
34103;BME280;20381;54.498;18.206;2023-08-21T06:24:27;100126.65;;;21.23;86.15
34103;BME280;20381;54.498;18.206;2023-08-21T06:26:56;100126.73;;;21.43;85.57
34103;BME280;20381;54.498;18.206;2023-08-21T06:29:25;100125.69;;;21.66;85.34
34103;BME280;20381;54.498;18.206;2023-08-21T06:31:53;100125.78;;;21.85;85.03
34103;BME280;20381;54.498;18.206;2023-08-21T06:34:22;100126.38;;;21.94;84.93
34103;BME280;20381;54.498;18.206;2023-08-21T06:36:50;100129.88;;;21.95;84.06
34103;BME280;20381;54.498;18.206;2023-08-21T06:39:19;100132.86;;;22.01;84.14
34103;BME280;20381;54.498;18.206;2023-08-21T06:41:47;100134.58;;;22.18;83.96
34103;BME280;20381;54.498;18.206;2023-08-21T06:44:16;100136.33;;;22.25;83.46
34103;BME280;20381;54.498;18.206;2023-08-21T06:46:46;100139.73;;;22.18;82.79
34103;BME280;20381;54.498;18.206;2023-08-21T06:49:14;100136.73;;;22.24;82.85
34103;BME280;20381;54.498;18.206;2023-08-21T06:51:43;100143.35;;;22.48;82.37
34103;BME280;20381;54.498;18.206;2023-08-21T06:54:12;100142.60;;;22.51;81.55
34103;BME280;20381;54.498;18.206;2023-08-21T06:56:41;100146.67;;;22.67;81.69
34103;BME280;20381;54.498;18.206;2023-08-21T06:59:10;100145.52;;;22.99;81.53
34103;BME280;20381;54.498;18.206;2023-08-21T07:01:38;100153.06;;;23.23;80.76
34103;BME280;20381;54.498;18.206;2023-08-21T07:04:07;100153.89;;;23.41;80.56
34103;BME280;20381;54.498;18.206;2023-08-21T07:06:44;100154.98;;;23.78;80.16
34103;BME280;20381;54.498;18.206;2023-08-21T07:09:13;100153.39;;;24.02;79.28
34103;BME280;20381;54.498;18.206;2023-08-21T07:11:41;100151.69;;;23.96;78.77
34103;BME280;20381;54.498;18.206;2023-08-21T07:14:10;100151.83;;;24.16;78.62
34103;BME280;20381;54.498;18.206;2023-08-21T07:16:43;100149.42;;;24.26;77.25
34103;BME280;20381;54.498;18.206;2023-08-21T07:19:12;100152.10;;;24.54;76.94
34103;BME280;20381;54.498;18.206;2023-08-21T07:21:41;100152.77;;;24.68;76.17
34103;BME280;20381;54.498;18.206;2023-08-21T07:24:09;100147.04;;;24.69;75.55
34103;BME280;20381;54.498;18.206;2023-08-21T07:26:38;100148.80;;;24.67;74.90
34103;BME280;20381;54.498;18.206;2023-08-21T07:29:07;100147.11;;;24.98;74.63
34103;BME280;20381;54.498;18.206;2023-08-21T07:31:36;100148.10;;;25.39;74.61
34103;BME280;20381;54.498;18.206;2023-08-21T07:34:13;100146.70;;;25.76;73.99
34103;BME280;20381;54.498;18.206;2023-08-21T07:36:42;100147.00;;;26.05;73.14
34103;BME280;20381;54.498;18.206;2023-08-21T07:39:10;100150.45;;;26.14;71.84
34103;BME280;20381;54.498;18.206;2023-08-21T07:41:39;100148.27;;;26.58;71.97
34103;BME280;20381;54.498;18.206;2023-08-21T07:44:08;100144.70;;;27.15;71.91
34103;BME280;20381;54.498;18.206;2023-08-21T07:46:38;100146.87;;;27.97;71.90
34103;BME280;20381;54.498;18.206;2023-08-21T07:49:07;100147.38;;;28.86;70.51
34103;BME280;20381;54.498;18.206;2023-08-21T07:51:36;100150.20;;;29.90;70.75
34103;BME280;20381;54.498;18.206;2023-08-21T07:54:05;100143.73;;;30.90;68.19
34103;BME280;20381;54.498;18.206;2023-08-21T07:56:33;100144.13;;;31.42;66.85
34103;BME280;20381;54.498;18.206;2023-08-21T07:59:09;100142.48;;;33.52;68.53
34103;BME280;20381;54.498;18.206;2023-08-21T08:01:41;100134.30;;;35.89;66.25
34103;BME280;20381;54.498;18.206;2023-08-21T08:04:10;100136.23;;;37.78;63.24
34103;BME280;20381;54.498;18.206;2023-08-21T08:06:39;100129.80;;;39.70;62.60
34103;BME280;20381;54.498;18.206;2023-08-21T08:09:08;100134.62;;;41.27;59.62
34103;BME280;20381;54.498;18.206;2023-08-21T08:11:37;100138.20;;;42.37;56.39
34103;BME280;20381;54.498;18.206;2023-08-21T08:14:05;100135.85;;;42.86;53.84
34103;BME280;20381;54.498;18.206;2023-08-21T08:16:34;100127.05;;;43.45;51.46
34103;BME280;20381;54.498;18.206;2023-08-21T08:19:03;100131.67;;;43.93;49.48
34103;BME280;20381;54.498;18.206;2023-08-21T08:21:32;100126.23;;;44.32;46.28
34103;BME280;20381;54.498;18.206;2023-08-21T08:24:01;100127.30;;;43.33;43.60
34103;BME280;20381;54.498;18.206;2023-08-21T08:26:30;100130.22;;;42.00;42.67
34103;BME280;20381;54.498;18.206;2023-08-21T08:28:58;100129.29;;;41.85;41.09
34103;BME280;20381;54.498;18.206;2023-08-21T08:31:27;100128.20;;;41.39;40.25
34103;BME280;20381;54.498;18.206;2023-08-21T08:33:56;100126.45;;;41.90;40.23
34103;BME280;20381;54.498;18.206;2023-08-21T08:36:25;100128.02;;;42.25;38.55
34103;BME280;20381;54.498;18.206;2023-08-21T08:38:54;100127.60;;;42.93;38.01
34103;BME280;20381;54.498;18.206;2023-08-21T08:41:47;100122.55;;;44.02;37.49
34103;BME280;20381;54.498;18.206;2023-08-21T08:44:17;100131.08;;;44.80;35.10
34103;BME280;20381;54.498;18.206;2023-08-21T08:46:47;100131.54;;;45.35;34.18
34103;BME280;20381;54.498;18.206;2023-08-21T08:49:17;100133.37;;;46.55;33.04
34103;BME280;20381;54.498;18.206;2023-08-21T08:51:46;100132.63;;;45.18;31.59
34103;BME280;20381;54.498;18.206;2023-08-21T08:54:17;100130.36;;;43.71;30.80
34103;BME280;20381;54.498;18.206;2023-08-21T08:56:47;100130.21;;;43.61;30.41
34103;BME280;20381;54.498;18.206;2023-08-21T08:59:20;100125.28;;;45.02;30.10
34103;BME280;20381;54.498;18.206;2023-08-21T09:01:48;100131.66;;;46.66;29.61
34103;BME280;20381;54.498;18.206;2023-08-21T09:04:17;100125.63;;;47.20;27.82
34103;BME280;20381;54.498;18.206;2023-08-21T09:06:46;100127.29;;;46.21;27.29
34103;BME280;20381;54.498;18.206;2023-08-21T09:09:15;100129.59;;;47.18;26.86
34103;BME280;20381;54.498;18.206;2023-08-21T09:11:45;100126.20;;;47.42;26.12
34103;BME280;20381;54.498;18.206;2023-08-21T09:14:14;100122.58;;;47.00;25.59
34103;BME280;20381;54.498;18.206;2023-08-21T09:17:02;100125.74;;;47.02;25.51
34103;BME280;20381;54.498;18.206;2023-08-21T09:19:51;100121.56;;;47.73;24.01
34103;BME280;20381;54.498;18.206;2023-08-21T09:22:53;100120.32;;;48.13;23.82
34103;BME280;20381;54.498;18.206;2023-08-21T09:25:25;100114.51;;;49.23;24.01
34103;BME280;20381;54.498;18.206;2023-08-21T09:27:54;100110.05;;;50.55;23.33
34103;BME280;20381;54.498;18.206;2023-08-21T09:30:23;100111.34;;;50.15;22.84
34103;BME280;20381;54.498;18.206;2023-08-21T09:33:01;100108.54;;;51.14;22.44
34103;BME280;20381;54.498;18.206;2023-08-21T09:35:33;100103.16;;;51.26;21.51
34103;BME280;20381;54.498;18.206;2023-08-21T09:38:02;100097.81;;;49.49;20.76
34103;BME280;20381;54.498;18.206;2023-08-21T09:40:43;100088.36;;;47.56;20.86
34103;BME280;20381;54.498;18.206;2023-08-21T09:43:13;100088.21;;;48.39;20.93
34103;BME280;20381;54.498;18.206;2023-08-21T09:45:46;100082.73;;;49.67;20.49
34103;BME280;20381;54.498;18.206;2023-08-21T09:48:16;100081.58;;;50.16;20.17
34103;BME280;20381;54.498;18.206;2023-08-21T09:51:07;100076.25;;;50.23;19.55
34103;BME280;20381;54.498;18.206;2023-08-21T09:54:00;100081.94;;;49.67;19.10
34103;BME280;20381;54.498;18.206;2023-08-21T09:56:35;100081.30;;;49.55;19.08
34103;BME280;20381;54.498;18.206;2023-08-21T09:59:05;100077.84;;;49.47;19.06
34103;BME280;20381;54.498;18.206;2023-08-21T10:01:36;100078.94;;;50.57;19.33
34103;BME280;20381;54.498;18.206;2023-08-21T10:04:10;100074.84;;;51.50;18.91
34103;BME280;20381;54.498;18.206;2023-08-21T10:07:09;100072.82;;;51.59;18.77
34103;BME280;20381;54.498;18.206;2023-08-21T10:09:57;100069.55;;;52.60;18.47
34103;BME280;20381;54.498;18.206;2023-08-21T10:12:27;100072.96;;;52.30;17.77
34103;BME280;20381;54.498;18.206;2023-08-21T10:14:58;100066.69;;;50.06;17.38
34103;BME280;20381;54.498;18.206;2023-08-21T10:17:27;100062.48;;;48.90;18.01
34103;BME280;20381;54.498;18.206;2023-08-21T10:20:02;100066.09;;;50.38;18.04
34103;BME280;20381;54.498;18.206;2023-08-21T10:22:53;100065.75;;;51.97;17.92
34103;BME280;20381;54.498;18.206;2023-08-21T10:25:25;100061.30;;;54.27;17.69
34103;BME280;20381;54.498;18.206;2023-08-21T10:27:59;100063.52;;;54.99;16.78
34103;BME280;20381;54.498;18.206;2023-08-21T10:30:31;100061.95;;;53.37;16.00
34103;BME280;20381;54.498;18.206;2023-08-21T10:33:02;100063.17;;;49.93;15.96
34103;BME280;20381;54.498;18.206;2023-08-21T10:35:31;100065.06;;;46.59;15.99
34103;BME280;20381;54.498;18.206;2023-08-21T10:41:06;100065.41;;;44.04;16.41
34103;BME280;20381;54.498;18.206;2023-08-21T10:43:45;100066.20;;;41.44;17.09
34103;BME280;20381;54.498;18.206;2023-08-21T10:46:25;100070.41;;;40.32;17.96
34103;BME280;20381;54.498;18.206;2023-08-21T10:48:53;100068.00;;;41.88;18.54
34103;BME280;20381;54.498;18.206;2023-08-21T10:51:22;100072.20;;;41.31;18.26
34103;BME280;20381;54.498;18.206;2023-08-21T10:53:50;100072.98;;;39.27;18.83
34103;BME280;20381;54.498;18.206;2023-08-21T10:56:19;100074.85;;;37.78;19.55
34103;BME280;20381;54.498;18.206;2023-08-21T10:58:52;100068.98;;;37.73;20.07
34103;BME280;20381;54.498;18.206;2023-08-21T11:01:23;100077.66;;;37.06;20.53
34103;BME280;20381;54.498;18.206;2023-08-21T11:03:52;100070.69;;;38.43;21.18
34103;BME280;20381;54.498;18.206;2023-08-21T11:06:21;100071.69;;;41.22;21.23
34103;BME280;20381;54.498;18.206;2023-08-21T11:08:53;100075.92;;;41.33;20.78
34103;BME280;20381;54.498;18.206;2023-08-21T11:11:22;100076.48;;;39.68;20.76
34103;BME280;20381;54.498;18.206;2023-08-21T11:13:54;100079.79;;;38.22;21.24
34103;BME280;20381;54.498;18.206;2023-08-21T11:16:24;100080.91;;;38.44;22.23
34103;BME280;20381;54.498;18.206;2023-08-21T11:19:03;100076.98;;;42.40;22.38
34103;BME280;20381;54.498;18.206;2023-08-21T11:21:34;100076.77;;;46.19;21.90
34103;BME280;20381;54.498;18.206;2023-08-21T11:24:06;100077.33;;;47.90;21.18
34103;BME280;20381;54.498;18.206;2023-08-21T11:26:45;100079.29;;;48.86;20.65
34103;BME280;20381;54.498;18.206;2023-08-21T11:29:14;100080.30;;;47.56;20.19
34103;BME280;20381;54.498;18.206;2023-08-21T11:31:45;100077.76;;;46.52;20.30
34103;BME280;20381;54.498;18.206;2023-08-21T11:34:19;100072.00;;;45.15;20.08
34103;BME280;20381;54.498;18.206;2023-08-21T11:36:52;100080.02;;;44.42;20.13
34103;BME280;20381;54.498;18.206;2023-08-21T11:39:24;100081.13;;;44.98;20.09
34103;BME280;20381;54.498;18.206;2023-08-21T11:41:58;100073.15;;;45.87;19.60
34103;BME280;20381;54.498;18.206;2023-08-21T11:44:29;100076.33;;;45.81;19.36
34103;BME280;20381;54.498;18.206;2023-08-21T11:46:57;100079.80;;;43.75;19.04
34103;BME280;20381;54.498;18.206;2023-08-21T11:49:26;100076.67;;;41.64;19.03
34103;BME280;20381;54.498;18.206;2023-08-21T11:51:55;100072.75;;;39.65;19.46
34103;BME280;20381;54.498;18.206;2023-08-21T11:54:23;100070.99;;;40.04;19.96
34103;BME280;20381;54.498;18.206;2023-08-21T11:56:53;100068.05;;;41.38;20.17
34103;BME280;20381;54.498;18.206;2023-08-21T11:59:23;100072.65;;;42.39;20.22
34103;BME280;20381;54.498;18.206;2023-08-21T12:01:51;100071.94;;;43.04;20.24
34103;BME280;20381;54.498;18.206;2023-08-21T12:04:20;100068.90;;;42.92;20.06
34103;BME280;20381;54.498;18.206;2023-08-21T12:06:49;100076.05;;;42.51;19.91
34103;BME280;20381;54.498;18.206;2023-08-21T12:09:18;100070.12;;;41.62;19.78
34103;BME280;20381;54.498;18.206;2023-08-21T12:11:54;100068.10;;;40.24;19.91
34103;BME280;20381;54.498;18.206;2023-08-21T12:14:23;100069.56;;;40.53;20.04
34103;BME280;20381;54.498;18.206;2023-08-21T12:16:52;100071.83;;;41.21;19.92
34103;BME280;20381;54.498;18.206;2023-08-21T12:19:24;100070.30;;;39.62;19.87
34103;BME280;20381;54.498;18.206;2023-08-21T12:21:52;100076.53;;;37.55;19.95
34103;BME280;20381;54.498;18.206;2023-08-21T12:25:06;100072.20;;;36.32;20.31
34103;BME280;20381;54.498;18.206;2023-08-21T12:27:33;100074.73;;;35.12;20.92
34103;BME280;20381;54.498;18.206;2023-08-21T12:30:25;100068.66;;;34.04;21.49
34103;BME280;20381;54.498;18.206;2023-08-21T12:32:53;100073.30;;;32.82;22.28
34103;BME280;20381;54.498;18.206;2023-08-21T12:35:24;100077.14;;;32.00;23.11
34103;BME280;20381;54.498;18.206;2023-08-21T12:37:57;100073.64;;;31.35;23.82
34103;BME280;20381;54.498;18.206;2023-08-21T12:40:34;100073.71;;;30.88;24.29
34103;BME280;20381;54.498;18.206;2023-08-21T12:43:02;100080.73;;;30.56;25.00
34103;BME280;20381;54.498;18.206;2023-08-21T12:45:31;100078.89;;;30.30;25.31
34103;BME280;20381;54.498;18.206;2023-08-21T12:48:00;100081.02;;;30.08;26.09
34103;BME280;20381;54.498;18.206;2023-08-21T12:50:29;100082.00;;;30.07;26.41
34103;BME280;20381;54.498;18.206;2023-08-21T12:52:58;100082.39;;;30.05;26.89
34103;BME280;20381;54.498;18.206;2023-08-21T12:55:26;100077.52;;;29.91;26.93
34103;BME280;20381;54.498;18.206;2023-08-21T12:57:56;100078.59;;;29.61;27.43
34103;BME280;20381;54.498;18.206;2023-08-21T13:00:48;100084.07;;;29.30;27.64
34103;BME280;20381;54.498;18.206;2023-08-21T13:03:27;100082.92;;;29.05;28.30
34103;BME280;20381;54.498;18.206;2023-08-21T13:05:57;100078.95;;;28.93;28.59
34103;BME280;20381;54.498;18.206;2023-08-21T13:08:26;100072.30;;;28.75;28.89
34103;BME280;20381;54.498;18.206;2023-08-21T13:10:55;100069.88;;;28.49;29.33
34103;BME280;20381;54.498;18.206;2023-08-21T13:13:23;100071.11;;;28.38;29.47